createdAt,value
2018-11-21T00:02:28.151Z,18.93
2018-11-21T00:05:00.207Z,18.13
2018-11-21T00:07:35.737Z,19.43
2018-11-21T00:10:09.361Z,17.93
2018-11-21T00:12:52.247Z,18.60
2018-11-21T00:15:24.644Z,18.03
2018-11-21T00:17:56.811Z,16.83
2018-11-21T00:20:29.062Z,18.30
2018-11-21T00:23:01.127Z,17.67
2018-11-21T00:25:33.113Z,18.70
2018-11-21T00:28:05.587Z,15.70
2018-11-21T00:30:37.726Z,18.70
2018-11-21T00:33:09.757Z,16.47
2018-11-21T00:35:42.128Z,17.57
2018-11-21T00:38:14.322Z,18.17
2018-11-21T00:40:46.699Z,16.60
2018-11-21T00:43:18.788Z,16.90
2018-11-21T00:45:50.849Z,18.37
2018-11-21T00:48:22.873Z,17.97
2018-11-21T00:50:55.288Z,19.00
2018-11-21T00:53:27.286Z,17.83
2018-11-21T00:55:59.351Z,18.10
2018-11-21T00:58:31.720Z,18.00
2018-11-21T01:01:04.400Z,17.67
2018-11-21T01:03:36.397Z,18.43
2018-11-21T01:06:11.080Z,18.63
2018-11-21T01:08:43.493Z,16.87
2018-11-21T01:11:15.975Z,18.03
2018-11-21T01:13:48.599Z,18.30
2018-11-21T01:16:24.000Z,17.70
2018-11-21T01:18:56.128Z,18.10
2018-11-21T01:21:28.153Z,17.13
2018-11-21T01:24:00.182Z,16.83
2018-11-21T01:26:32.346Z,19.13
2018-11-21T01:29:04.591Z,19.73
2018-11-21T01:31:36.691Z,17.53
2018-11-21T01:34:08.730Z,18.20
2018-11-21T01:36:41.283Z,18.17
2018-11-21T01:39:13.291Z,18.17
2018-11-21T01:41:45.451Z,18.17
2018-11-21T01:44:17.519Z,18.20
2018-11-21T01:46:49.594Z,18.80
2018-11-21T01:49:21.850Z,18.60
2018-11-21T01:51:54.480Z,19.47
2018-11-21T01:54:28.131Z,18.90
2018-11-21T01:57:00.235Z,19.50
2018-11-21T01:59:39.587Z,18.57
2018-11-21T02:02:11.625Z,18.90
2018-11-21T02:04:43.641Z,18.60
2018-11-21T02:07:15.733Z,18.07
2018-11-21T02:09:47.749Z,20.00
2018-11-21T02:12:20.264Z,19.20
2018-11-21T02:14:52.258Z,20.10
2018-11-21T02:17:24.484Z,19.07
2018-11-21T02:19:56.613Z,19.83
2018-11-21T02:22:29.136Z,19.77
2018-11-21T02:25:01.454Z,20.23
2018-11-21T02:27:33.874Z,19.53
2018-11-21T02:30:07.035Z,20.17
2018-11-21T02:32:39.082Z,19.70
2018-11-21T02:35:11.197Z,20.27
2018-11-21T02:37:43.290Z,19.60
2018-11-21T02:40:15.291Z,19.70
2018-11-21T02:42:47.341Z,20.67
2018-11-21T02:45:19.494Z,20.40
2018-11-21T02:47:51.520Z,20.10
2018-11-21T02:50:23.544Z,19.50
2018-11-21T02:52:56.361Z,20.07
2018-11-21T02:55:28.396Z,20.37
2018-11-21T02:58:01.198Z,19.00
2018-11-21T03:00:33.208Z,19.70
2018-11-21T03:03:05.379Z,20.17
2018-11-21T03:05:37.465Z,21.00
2018-11-21T03:08:09.493Z,21.10
2018-11-21T03:10:41.564Z,19.67
2018-11-21T03:13:13.624Z,21.77
2018-11-21T03:15:45.689Z,20.27
2018-11-21T03:18:18.134Z,20.57
2018-11-21T03:20:50.238Z,20.50
2018-11-21T03:23:22.362Z,21.10
2018-11-21T03:25:54.434Z,20.50
2018-11-21T03:28:26.480Z,20.57
2018-11-21T03:30:58.555Z,20.40
2018-11-21T03:33:30.586Z,21.00
2018-11-21T03:36:02.638Z,20.60
2018-11-21T03:38:34.673Z,21.03
2018-11-21T03:41:06.718Z,21.27
2018-11-21T03:43:38.706Z,21.90
2018-11-21T03:46:11.413Z,21.20
2018-11-21T03:48:43.474Z,20.60
2018-11-21T03:51:15.701Z,19.77
2018-11-21T03:53:48.108Z,21.20
2018-11-21T03:56:20.161Z,21.63
2018-11-21T03:58:52.578Z,21.40
2018-11-21T04:01:24.956Z,20.43
2018-11-21T04:03:57.351Z,21.37
2018-11-21T04:06:29.481Z,20.37
2018-11-21T04:09:01.530Z,20.83
2018-11-21T04:11:33.612Z,20.17
2018-11-21T04:14:06.261Z,22.17
2018-11-21T04:16:38.318Z,20.13
2018-11-21T04:19:10.346Z,20.60
2018-11-21T04:21:42.698Z,21.00
2018-11-21T04:24:14.817Z,20.50
2018-11-21T04:26:47.226Z,20.37
2018-11-21T04:29:19.220Z,20.17
2018-11-21T04:31:51.362Z,20.63
2018-11-21T04:34:23.654Z,20.37
2018-11-21T04:36:55.753Z,20.60
2018-11-21T04:39:27.783Z,19.20
2018-11-21T04:41:59.801Z,19.23
2018-11-21T04:44:31.842Z,20.77
2018-11-21T04:47:04.315Z,20.73
2018-11-21T04:49:36.447Z,19.10
2018-11-21T04:52:08.848Z,20.80
2018-11-21T04:54:40.922Z,19.80
2018-11-21T04:57:13.426Z,18.77
2018-11-21T04:59:45.535Z,21.10
2018-11-21T05:02:17.529Z,20.87
2018-11-21T05:04:49.596Z,19.67
2018-11-21T05:07:21.590Z,20.13
2018-11-21T05:09:53.814Z,19.73
2018-11-21T05:12:26.034Z,19.33
2018-11-21T05:14:58.086Z,20.60
2018-11-21T05:17:30.150Z,18.67
2018-11-21T05:20:02.609Z,17.83
2018-11-21T05:22:34.621Z,21.07
2018-11-21T05:25:07.630Z,18.80
2018-11-21T05:27:39.630Z,21.63
2018-11-21T05:30:12.729Z,20.47
2018-11-21T05:32:44.726Z,20.27
2018-11-21T05:35:16.786Z,20.57
2018-11-21T05:37:48.781Z,19.87
2018-11-21T05:40:20.937Z,19.73
2018-11-21T05:42:52.961Z,19.80
2018-11-21T05:45:25.048Z,20.13
2018-11-21T05:47:57.090Z,18.47
2018-11-21T05:50:29.196Z,19.37
2018-11-21T05:53:01.263Z,21.50
2018-11-21T05:55:33.331Z,19.93
2018-11-21T05:58:05.719Z,19.10
2018-11-21T06:00:37.818Z,18.90
2018-11-21T06:03:09.913Z,18.03
2018-11-21T06:05:42.152Z,18.47
2018-11-21T06:08:14.240Z,19.07
2018-11-21T06:10:46.459Z,18.73
2018-11-21T06:13:18.551Z,17.23
2018-11-21T06:15:50.642Z,18.03
2018-11-21T06:18:22.670Z,19.17
2018-11-21T06:20:55.140Z,18.23
2018-11-21T06:23:27.529Z,18.70
2018-11-21T06:25:59.810Z,18.90
2018-11-21T06:28:32.216Z,19.57
2018-11-21T06:31:05.989Z,17.70
2018-11-21T06:33:38.016Z,17.67
2018-11-21T06:36:10.227Z,19.23
2018-11-21T06:38:42.526Z,18.03
2018-11-21T06:41:14.919Z,18.10
2018-11-21T06:43:47.052Z,19.17
2018-11-21T06:46:19.120Z,17.97
2018-11-21T06:48:51.117Z,18.27
2018-11-21T06:51:23.696Z,18.80
2018-11-21T06:53:55.822Z,18.00
2018-11-21T06:56:28.307Z,17.50
2018-11-21T06:59:00.399Z,18.10
2018-11-21T07:01:32.441Z,18.40
2018-11-21T07:04:04.577Z,18.53
2018-11-21T07:06:36.698Z,18.13
2018-11-21T07:09:09.786Z,17.57
2018-11-21T07:11:41.890Z,17.47
2018-11-21T07:14:14.308Z,17.83
2018-11-21T07:16:46.388Z,17.20
2018-11-21T07:19:18.498Z,18.30
2018-11-21T07:21:50.861Z,18.53
2018-11-21T07:24:26.325Z,17.70
2018-11-21T07:26:54.993Z,17.43
2018-11-21T07:29:34.295Z,18.13
2018-11-21T07:32:00.073Z,18.10
2018-11-21T07:34:32.143Z,16.87
2018-11-21T07:37:04.569Z,17.33
2018-11-21T07:39:36.827Z,17.63
2018-11-21T07:42:08.845Z,17.80
2018-11-21T07:44:41.082Z,16.27
2018-11-21T07:47:13.486Z,17.13
2018-11-21T07:49:45.928Z,17.10
2018-11-21T07:52:18.043Z,17.37
2018-11-21T07:54:50.640Z,18.00
2018-11-21T07:57:36.279Z,19.63
2018-11-21T08:01:22.259Z,17.57
2018-11-21T08:03:59.790Z,17.40
2018-11-21T08:06:44.260Z,16.77
2018-11-21T08:09:30.623Z,16.97
2018-11-21T08:12:16.583Z,18.13
2018-11-21T08:15:19.436Z,17.97
2018-11-21T08:18:07.903Z,18.13
2018-11-21T08:20:58.423Z,16.87
2018-11-21T08:23:55.407Z,18.47
2018-11-21T08:26:39.162Z,17.67
2018-11-21T08:29:13.955Z,17.87
2018-11-21T08:31:45.998Z,18.07
2018-11-21T08:34:18.014Z,18.73
2018-11-21T08:36:50.163Z,17.80
2018-11-21T08:39:22.226Z,18.83
2018-11-21T08:41:54.363Z,17.40
2018-11-21T08:44:26.401Z,19.23
2018-11-21T08:46:58.788Z,19.97
2018-11-21T08:49:30.779Z,17.53
2018-11-21T08:52:03.364Z,18.37
2018-11-21T08:54:35.497Z,18.37
2018-11-21T08:57:08.155Z,18.20
2018-11-21T08:59:40.221Z,17.07
2018-11-21T09:02:12.346Z,19.00
2018-11-21T09:04:44.496Z,18.50
2018-11-21T09:07:16.570Z,17.90
2018-11-21T09:09:48.589Z,19.33
2018-11-21T09:12:20.741Z,18.33
2018-11-21T09:14:52.902Z,18.17
2018-11-21T09:17:25.035Z,20.07
2018-11-21T09:19:57.665Z,19.43
2018-11-21T09:22:29.797Z,19.17
2018-11-21T09:25:02.581Z,20.17
2018-11-21T09:27:35.301Z,19.27
2018-11-21T09:30:09.492Z,18.83
2018-11-21T09:32:41.887Z,19.57
2018-11-21T09:35:15.319Z,22.33
2018-11-21T09:37:47.781Z,22.97
2018-11-21T09:40:21.215Z,21.50
2018-11-21T09:42:54.656Z,18.93
2018-11-21T09:45:27.251Z,19.73
2018-11-21T09:47:59.485Z,19.97
2018-11-21T09:50:32.755Z,20.53
2018-11-21T09:53:05.001Z,20.00
2018-11-21T09:55:40.395Z,20.93
2018-11-21T09:58:10.477Z,19.97
2018-11-21T10:01:23.303Z,20.43
2018-11-21T10:03:58.850Z,18.57
2018-11-21T10:06:31.065Z,20.37
2018-11-21T10:09:06.647Z,20.07
2018-11-21T10:11:38.846Z,20.30
2018-11-21T10:14:10.876Z,19.83
2018-11-21T10:16:43.339Z,21.30
2018-11-21T10:19:15.404Z,21.43
2018-11-21T10:21:47.539Z,20.30
2018-11-21T10:24:19.971Z,20.77
2018-11-21T10:26:52.051Z,21.83
2018-11-21T10:29:24.117Z,21.07
2018-11-21T10:31:56.312Z,22.10
2018-11-21T10:34:28.484Z,23.37
2018-11-21T10:37:00.643Z,22.10
2018-11-21T10:39:32.921Z,21.57
2018-11-21T10:42:05.070Z,21.60
2018-11-21T10:44:37.139Z,22.43
2018-11-21T10:47:09.452Z,22.77
2018-11-21T10:49:41.501Z,21.43
2018-11-21T10:52:13.615Z,21.77
2018-11-21T10:54:45.776Z,20.50
2018-11-21T10:57:17.918Z,20.97
2018-11-21T10:59:49.907Z,21.23
2018-11-21T11:02:25.421Z,22.40
2018-11-21T11:05:23.090Z,22.20
2018-11-21T11:08:22.202Z,21.73
2018-11-21T11:11:03.969Z,22.37
2018-11-21T11:13:58.658Z,23.40
2018-11-21T11:17:00.704Z,22.40
2018-11-21T11:19:45.908Z,20.53
2018-11-21T11:22:36.302Z,21.43
2018-11-21T11:25:40.074Z,21.70
2018-11-21T11:28:30.550Z,20.90
2018-11-21T11:31:21.200Z,21.27
2018-11-21T11:34:12.906Z,21.40
2018-11-21T11:37:10.383Z,19.97
2018-11-21T11:40:11.776Z,21.20
2018-11-21T11:42:57.421Z,27.00
2018-11-21T11:45:48.333Z,22.43
2018-11-21T11:48:42.918Z,20.00
2018-11-21T11:51:39.893Z,21.73
2018-11-21T11:54:36.870Z,21.00
2018-11-21T11:57:26.979Z,22.00
2018-11-21T12:00:27.665Z,22.67
2018-11-21T12:03:21.857Z,20.77
2018-11-21T12:06:16.340Z,22.20
2018-11-21T12:09:13.920Z,20.90
2018-11-21T12:12:18.934Z,22.43
2018-11-21T12:15:09.111Z,20.67
2018-11-21T12:17:51.757Z,21.07
2018-11-21T12:20:37.814Z,21.80
2018-11-21T12:23:26.939Z,21.07
2018-11-21T12:26:30.935Z,20.70
2018-11-21T12:29:25.455Z,21.77
2018-11-21T12:32:15.944Z,22.00
2018-11-21T12:35:07.997Z,21.13
2018-11-21T12:38:11.722Z,21.33
2018-11-21T12:41:21.874Z,22.20
2018-11-21T12:44:09.165Z,20.40
2018-11-21T12:46:59.634Z,21.13
2018-11-21T12:49:50.147Z,20.30
2018-11-21T12:52:42.412Z,21.10
2018-11-21T12:55:52.750Z,21.07
2018-11-21T12:58:40.770Z,22.90
2018-11-21T13:01:32.661Z,21.93
2018-11-21T13:04:42.908Z,21.27
2018-11-21T13:07:34.022Z,20.47
2018-11-21T13:10:15.660Z,20.23
2018-11-21T13:13:06.309Z,20.20
2018-11-21T13:15:56.343Z,18.80
2018-11-21T13:18:46.857Z,21.13
2018-11-21T13:21:37.272Z,19.80
2018-11-21T13:24:16.919Z,19.63
2018-11-21T13:27:07.196Z,19.30
2018-11-21T13:29:57.707Z,18.03
2018-11-21T13:32:48.562Z,20.40
2018-11-21T13:35:40.389Z,20.87
2018-11-21T13:38:32.933Z,19.37
2018-11-21T13:41:23.686Z,19.57
2018-11-21T13:44:13.912Z,19.50
2018-11-21T13:47:02.646Z,19.17
2018-11-21T13:49:59.307Z,18.40
2018-11-21T13:52:38.421Z,19.77
2018-11-21T13:55:10.465Z,19.60
2018-11-21T13:57:42.518Z,20.10
2018-11-21T14:00:14.810Z,19.33
2018-11-21T14:02:46.924Z,19.43
2018-11-21T14:05:19.605Z,20.73
2018-11-21T14:07:51.753Z,20.77
2018-11-21T14:10:23.807Z,20.23
2018-11-21T14:12:55.918Z,20.37
2018-11-21T14:15:27.995Z,20.47
2018-11-21T14:18:00.078Z,22.07
2018-11-21T14:20:32.144Z,19.93
2018-11-21T14:23:04.675Z,19.33
2018-11-21T14:25:36.894Z,19.40
2018-11-21T14:28:08.977Z,20.13
2018-11-21T14:30:41.196Z,20.77
2018-11-21T14:33:13.221Z,21.40
2018-11-21T14:35:45.267Z,19.83
2018-11-21T14:38:17.390Z,19.87
2018-11-21T14:40:49.561Z,19.43
2018-11-21T14:43:21.575Z,20.20
2018-11-21T14:45:53.775Z,20.17
2018-11-21T14:48:25.806Z,20.07
2018-11-21T14:50:57.829Z,19.57
2018-11-21T14:53:30.462Z,18.87
2018-11-21T14:56:02.630Z,17.83
2018-11-21T14:58:34.817Z,18.97
2018-11-21T15:01:06.952Z,19.07
2018-11-21T15:03:39.049Z,19.13
2018-11-21T15:06:11.169Z,19.07
2018-11-21T15:08:43.538Z,17.83
2018-11-21T15:11:15.579Z,19.50
2018-11-21T15:13:47.644Z,18.23
2018-11-21T15:16:19.804Z,20.30
2018-11-21T15:18:51.929Z,18.67
2018-11-21T15:21:23.950Z,17.30
2018-11-21T15:23:56.194Z,17.07
2018-11-21T15:26:28.239Z,19.13
2018-11-21T15:29:00.368Z,17.53
2018-11-21T15:31:32.518Z,19.23
2018-11-21T15:34:04.588Z,18.57
2018-11-21T15:36:36.670Z,19.53
2018-11-21T15:39:09.899Z,19.50
2018-11-21T15:41:42.136Z,18.80
2018-11-21T15:44:14.228Z,20.63
2018-11-21T15:46:47.662Z,19.07
2018-11-21T15:49:19.959Z,20.37
2018-11-21T15:51:51.963Z,18.50
2018-11-21T15:54:24.227Z,21.23
2018-11-21T15:56:56.470Z,22.60
2018-11-21T15:59:28.933Z,20.17
2018-11-21T16:02:01.886Z,20.67
2018-11-21T16:04:34.073Z,20.23
2018-11-21T16:07:06.494Z,19.87
2018-11-21T16:09:38.647Z,18.93
2018-11-21T16:12:10.888Z,19.90
2018-11-21T16:14:42.944Z,20.67
2018-11-21T16:17:15.080Z,21.47
2018-11-21T16:19:47.197Z,20.43
2018-11-21T16:22:19.448Z,20.17
2018-11-21T16:24:51.466Z,20.80
2018-11-21T16:27:24.063Z,21.30
2018-11-21T16:29:56.211Z,20.17
2018-11-21T16:32:28.869Z,20.53
2018-11-21T16:35:01.010Z,19.73
2018-11-21T16:37:33.496Z,19.37
2018-11-21T16:40:08.453Z,20.23
2018-11-21T16:42:40.988Z,22.03
2018-11-21T16:45:14.947Z,21.33
2018-11-21T16:47:47.900Z,21.10
2018-11-21T16:50:20.381Z,20.93
2018-11-21T16:52:52.751Z,22.73
